Elizabeth — WSN6409 — position and weather

sailwx.info

Track history (hours):
 
Tides and Currents Weather Stations Pressure Air Temp Water Temp Dewpoint Dewpoint Depression Visibility Wind Speed Wind Dir Waves Ship Positions

Elizabeth

Owner: WEEKS MARINE, INC., CRANFORD, NJ. More information available from US FCC via Universal Licensing System and Coast Guard Vessel Documentation Center.

Last reported at 2018-Jun-19 18:00 UTC. Time now 2018-Jun-19 18:22 UTC.
Position N 40°41' W 074°05'.

Length 24 m; draft 3.3 m.

Type: . MMSI: 366939170.

Date/timePositionNaut miles runAvg speedWind from/ knotsBaromVisibWave heightAir tempDewpointWater temp
2018-Jun-19 18:00N 40°41' W 074°05'0 0.0
2018-Jun-19 17:30N 40°41' W 074°05'0 0.2
2018-Jun-19 17:00N 40°41' W 074°05'1 2.2
2018-Jun-19 16:30N 40°39' W 074°04'3 6.1
2018-Jun-19 16:00N 40°39' W 074°08'3 0.8
2018-Jun-19 11:55N 40°37' W 074°12'4 8.2
2018-Jun-19 11:29N 40°39' W 074°08'3 6.8
2018-Jun-19 11:00N 40°40' W 074°04'0 0.8
2018-Jun-19 10:30N 40°41' W 074°05'0 0.0
2018-Jun-19 10:00N 40°41' W 074°05'0 0.0
2018-Jun-19 09:30N 40°41' W 074°05'0 0.0
2018-Jun-19 09:00N 40°41' W 074°05'0 0.0
2018-Jun-19 08:30N 40°41' W 074°05'0 0.0
2018-Jun-19 08:00N 40°41' W 074°05'0 0.0
2018-Jun-19 07:30N 40°41' W 074°05'0 0.0
2018-Jun-19 07:00N 40°41' W 074°05'0 0.0
2018-Jun-19 06:30N 40°41' W 074°05'0 0.0
2018-Jun-19 06:00N 40°41' W 074°05'0 0.0
2018-Jun-19 05:30N 40°41' W 074°05'0 0.0
2018-Jun-19 05:00N 40°41' W 074°05'0 0.0
2018-Jun-19 04:30N 40°41' W 074°05'0 0.0
2018-Jun-19 04:00N 40°41' W 074°05'0 0.0
2018-Jun-19 03:30N 40°41' W 074°05'0 0.0
2018-Jun-19 03:00N 40°41' W 074°05'0 0.0
2018-Jun-19 02:30N 40°41' W 074°05'0 0.0
2018-Jun-19 02:00N 40°41' W 074°05'0 0.0
2018-Jun-19 01:30N 40°41' W 074°05'0 0.0
2018-Jun-19 01:00N 40°41' W 074°05'0 0.0
2018-Jun-19 00:30N 40°41' W 074°05'0 0.0
2018-Jun-19 00:00N 40°41' W 074°05'0 0.0
2018-Jun-18 23:30N 40°41' W 074°05'0 0.5
2018-Jun-18 23:00N 40°41' W 074°04'0 0.4
2018-Jun-18 22:30N 40°41' W 074°04'0 0.3
2018-Jun-18 22:00N 40°40' W 074°05'0 0.2
2018-Jun-18 21:30N 40°41' W 074°05'0 0.1
2018-Jun-18 21:00N 40°41' W 074°05'0 0.1
2018-Jun-18 20:30N 40°41' W 074°05'0 0.0
2018-Jun-18 20:00N 40°41' W 074°05'0 0.0
2018-Jun-18 19:30N 40°41' W 074°05'0 0.0
2018-Jun-18 19:00N 40°41' W 074°05'0 0.0
2018-Jun-18 18:30N 40°41' W 074°05'2 3.7
2018-Jun-18 18:00N 40°39' W 074°06'5 0.8
2018-Jun-18 11:48N 40°38' W 074°12'3 8.6
2018-Jun-18 11:30N 40°39' W 074°09'4 7.9
2018-Jun-18 11:00N 40°40' W 074°04'0 0.9
2018-Jun-18 10:30N 40°41' W 074°05'0 0.0
2018-Jun-18 10:00N 40°41' W 074°05'0 0.0
2018-Jun-18 09:30N 40°41' W 074°05'0 0.0
2018-Jun-18 09:00N 40°41' W 074°05'0 0.0
2018-Jun-18 08:30N 40°41' W 074°05'0 0.0
2018-Jun-18 08:00N 40°41' W 074°05'0 0.0
2018-Jun-18 07:30N 40°41' W 074°05'0 0.0
2018-Jun-18 07:00N 40°41' W 074°05'0 0.0
2018-Jun-18 06:30N 40°41' W 074°05'0 0.0
2018-Jun-18 06:00N 40°41' W 074°05'0 0.0
2018-Jun-18 05:30N 40°41' W 074°05'0 0.0
2018-Jun-18 05:00N 40°41' W 074°05'0 0.0
2018-Jun-18 04:30N 40°41' W 074°05'0 0.0
2018-Jun-18 04:00N 40°41' W 074°05'0 0.0
2018-Jun-18 03:30N 40°41' W 074°05'0 0.0
2018-Jun-18 03:00N 40°41' W 074°05'0 0.0
2018-Jun-18 02:30N 40°41' W 074°05'0 0.0
2018-Jun-18 02:00N 40°41' W 074°05'0 0.0
2018-Jun-18 01:30N 40°41' W 074°05'0 0.0
2018-Jun-18 01:00N 40°41' W 074°05'0 0.0
2018-Jun-18 00:30N 40°41' W 074°05'0 0.0
2018-Jun-18 00:00N 40°41' W 074°05'0 0.4
2018-Jun-17 23:30N 40°41' W 074°04'0 0.7
2018-Jun-17 23:00N 40°40' W 074°04'2 3.9
2018-Jun-17 22:30N 40°38' W 074°03'3 5.5
2018-Jun-17 21:59N 40°36' W 074°02'10 3.1
2018-Jun-17 18:40N 40°28' W 073°54'1 4.1
2018-Jun-17 18:20N 40°29' W 073°55'10 9.0
2018-Jun-17 17:16N 40°36' W 074°03'2 8.9
2018-Jun-17 17:00N 40°39' W 074°03'2 0.6
2018-Jun-17 13:12N 40°41' W 074°05'0 0.0
2018-Jun-17 13:00N 40°41' W 074°05'0 0.0
2018-Jun-17 12:30N 40°41' W 074°05'0 0.0
2018-Jun-17 12:00N 40°41' W 074°05'0 0.0
2018-Jun-17 11:30N 40°41' W 074°05'0 0.0
2018-Jun-17 11:00N 40°41' W 074°05'0 0.0
2018-Jun-17 10:30N 40°41' W 074°05'0 0.0
2018-Jun-17 10:00N 40°41' W 074°05'0 0.0
2018-Jun-17 09:30N 40°41' W 074°05'0 0.0
2018-Jun-17 09:00N 40°41' W 074°05'0 0.0
2018-Jun-17 08:30N 40°41' W 074°05'0 0.0
2018-Jun-17 08:00N 40°41' W 074°05'0 0.0
2018-Jun-17 07:30N 40°41' W 074°05'0 0.0
2018-Jun-17 07:00N 40°41' W 074°05'0 0.0
2018-Jun-17 06:30N 40°41' W 074°05'0 0.0
2018-Jun-17 06:00N 40°41' W 074°05'0 0.0
2018-Jun-17 05:30N 40°41' W 074°05'0 0.0
2018-Jun-17 05:00N 40°41' W 074°05'0 0.0
2018-Jun-17 04:30N 40°41' W 074°05'0 0.0
2018-Jun-17 04:00N 40°41' W 074°05'0 0.0
2018-Jun-17 03:30N 40°41' W 074°05'0 0.0
2018-Jun-17 03:00N 40°41' W 074°05'0 0.0
2018-Jun-17 02:30N 40°41' W 074°05'0 0.0
2018-Jun-17 02:00N 40°41' W 074°05'0 0.0
2018-Jun-17 01:30N 40°41' W 074°05'0 0.0
2018-Jun-17 01:00N 40°41' W 074°05'0 0.0
2018-Jun-17 00:30N 40°41' W 074°05'0 0.0
2018-Jun-17 00:00N 40°41' W 074°05'0 0.0
2018-Jun-16 23:30N 40°41' W 074°05'0 0.0
2018-Jun-16 23:00N 40°41' W 074°05'0 0.0
2018-Jun-16 22:30N 40°41' W 074°05'0 0.0
2018-Jun-16 22:00N 40°41' W 074°05'0 0.0
2018-Jun-16 21:30N 40°41' W 074°05'0 0.0
2018-Jun-16 21:00N 40°41' W 074°05'0 0.0
2018-Jun-16 20:30N 40°41' W 074°05'0 0.0
2018-Jun-16 20:00N 40°41' W 074°05'0 0.3
2018-Jun-16 19:30N 40°40' W 074°04'0 0.0
2018-Jun-16 19:01N 40°40' W 074°04'0 0.4
2018-Jun-16 18:30N 40°40' W 074°04'1 1.2
2018-Jun-16 18:00N 40°40' W 074°05'0 0.0
2018-Jun-16 17:29N 40°40' W 074°05'0 0.0
2018-Jun-16 17:00N 40°40' W 074°05'0 0.3
2018-Jun-16 16:30N 40°40' W 074°05'0 0.1
2018-Jun-16 16:01N 40°40' W 074°05'1 1.2
2018-Jun-16 15:30N 40°40' W 074°04'0 0.3
2018-Jun-16 15:00N 40°40' W 074°04'0 0.2
2018-Jun-16 14:30N 40°40' W 074°05'0 0.8
2018-Jun-16 14:00N 40°40' W 074°04'0 0.5
2018-Jun-16 13:30N 40°41' W 074°04'0 0.4
2018-Jun-16 13:00N 40°41' W 074°05'0 0.4
2018-Jun-16 12:30N 40°41' W 074°04'0 0.0
2018-Jun-16 12:01N 40°41' W 074°04'0 0.1
2018-Jun-16 11:30N 40°41' W 074°04'0 0.2
2018-Jun-16 11:01N 40°40' W 074°04'0 0.5
2018-Jun-16 10:30N 40°41' W 074°05'0 0.0
2018-Jun-16 10:00N 40°41' W 074°05'0 0.0
2018-Jun-16 09:30N 40°41' W 074°05'0 0.0
2018-Jun-16 09:00N 40°41' W 074°05'0 0.0
2018-Jun-16 08:30N 40°41' W 074°05'0 0.0
2018-Jun-16 08:00N 40°41' W 074°05'0 0.0
2018-Jun-16 07:30N 40°41' W 074°05'0 0.0
2018-Jun-16 07:00N 40°41' W 074°05'0 0.0
2018-Jun-16 06:30N 40°41' W 074°05'0 0.0
2018-Jun-16 06:00N 40°41' W 074°05'0 0.0
2018-Jun-16 05:30N 40°41' W 074°05'0 0.0
2018-Jun-16 05:00N 40°41' W 074°05'0 0.0
2018-Jun-16 04:30N 40°41' W 074°05'0 0.0
2018-Jun-16 04:00N 40°41' W 074°05'1 1.6
2018-Jun-16 03:30N 40°40' W 074°04'4 8.1
2018-Jun-16 03:00N 40°44' W 074°01'2 0.1
2018-Jun-15 09:36N 40°46' W 074°00'1 6.8
2018-Jun-15 09:30N 40°46' W 074°00'4 7.5
2018-Jun-15 09:00N 40°42' W 074°02'3 5.2
2018-Jun-15 08:30N 40°41' W 074°04'0 0.0
2018-Jun-15 08:00N 40°41' W 074°04'0 0.0
2018-Jun-15 07:30N 40°41' W 074°04'0 0.0
2018-Jun-15 07:00N 40°41' W 074°04'0 0.1
2018-Jun-15 06:31N 40°41' W 074°05'0 0.1
2018-Jun-15 06:00N 40°41' W 074°05'0 0.0
2018-Jun-15 05:30N 40°41' W 074°05'0 0.0
2018-Jun-15 05:00N 40°41' W 074°05'0 0.0
2018-Jun-15 04:30N 40°41' W 074°05'0 0.0
2018-Jun-15 04:00N 40°41' W 074°05'0 0.0
2018-Jun-15 03:30N 40°41' W 074°05'0 0.0
2018-Jun-15 03:00N 40°41' W 074°05'0 0.0
2018-Jun-15 02:30N 40°41' W 074°05'0 0.0
2018-Jun-15 02:00N 40°41' W 074°05'0 0.0
2018-Jun-15 01:30N 40°41' W 074°05'0 0.0
2018-Jun-15 01:00N 40°41' W 074°05'0 0.0
2018-Jun-15 00:30N 40°41' W 074°05'0 0.0
2018-Jun-15 00:00N 40°41' W 074°05'0 0.3
2018-Jun-14 23:30N 40°41' W 074°04'0 0.0
2018-Jun-14 23:01N 40°41' W 074°04'0 0.2
2018-Jun-14 22:31N 40°40' W 074°04'0 0.2
2018-Jun-14 22:00N 40°41' W 074°04'0 0.1
2018-Jun-14 21:31N 40°40' W 074°04'0 0.4
2018-Jun-14 21:01N 40°41' W 074°04'0 0.3
2018-Jun-14 20:30N 40°41' W 074°05'0 0.0
2018-Jun-14 20:00N 40°41' W 074°05'0 0.0
2018-Jun-14 19:30N 40°41' W 074°05'0 0.0
2018-Jun-14 19:01N 40°41' W 074°05'0 0.0
2018-Jun-14 18:30N 40°41' W 074°05'0 0.0
2018-Jun-14 18:00N 40°41' W 074°05'0 0.0
2018-Jun-14 17:30N 40°41' W 074°05'1 1.9
2018-Jun-14 17:00N 40°40' W 074°03'510.5
2018-Jun-14 16:31N 40°45' W 074°01'0 0.1
2018-Jun-14 09:32N 40°46' W 074°00'0 8.0
2018-Jun-14 09:30N 40°45' W 074°01'4 8.3
2018-Jun-14 09:01N 40°41' W 074°02'2 4.4
2018-Jun-14 08:30N 40°41' W 074°05'0 0.0
2018-Jun-14 08:00N 40°41' W 074°05'0 0.0
2018-Jun-14 07:30N 40°41' W 074°05'0 0.0
2018-Jun-14 07:00N 40°41' W 074°05'0 0.0
2018-Jun-14 06:30N 40°41' W 074°05'0 0.0
2018-Jun-14 06:00N 40°41' W 074°05'0 0.0
2018-Jun-14 05:30N 40°41' W 074°05'0 0.5
2018-Jun-14 05:01N 40°40' W 074°04'0 0.2
2018-Jun-14 04:30N 40°40' W 074°04'0 0.1
2018-Jun-14 04:00N 40°40' W 074°04'0 0.2
2018-Jun-14 03:31N 40°40' W 074°04'0 0.6
2018-Jun-14 03:01N 40°41' W 074°05'0 0.3
2018-Jun-14 02:30N 40°40' W 074°04'1 2.6
2018-Jun-14 02:00N 40°39' W 074°05'6 0.6
2018-Jun-13 16:29N 40°37' W 074°12'3 5.1
2018-Jun-13 15:56N 40°39' W 074°09'2 4.9
2018-Jun-13 15:28N 40°39' W 074°06'2 4.8
2018-Jun-13 15:01N 40°40' W 074°04'0 0.7
2018-Jun-13 14:30N 40°41' W 074°04'0 0.3
2018-Jun-13 14:01N 40°41' W 074°04'0 0.1
2018-Jun-13 13:30N 40°41' W 074°04'0 0.9
2018-Jun-13 13:00N 40°40' W 074°04'3 6.1
2018-Jun-13 12:30N 40°39' W 074°07'4 0.8
2018-Jun-13 07:24N 40°37' W 074°12'2 5.2
2018-Jun-13 06:59N 40°39' W 074°10'3 5.4
2018-Jun-13 06:30N 40°39' W 074°07'2 5.0
2018-Jun-13 06:00N 40°40' W 074°04'1 1.4
2018-Jun-13 05:30N 40°41' W 074°04'0 0.0
2018-Jun-13 05:00N 40°41' W 074°04'3 5.3
2018-Jun-13 04:31N 40°42' W 074°01'5 2.0
2018-Jun-13 01:53N 40°46' W 073°57'2 6.0
2018-Jun-13 01:31N 40°44' W 073°58'3 6.2
2018-Jun-13 01:00N 40°41' W 074°01'3 6.7
2018-Jun-13 00:30N 40°39' W 074°04'3 6.4
2018-Jun-13 00:00N 40°39' W 074°09'3 1.2
2018-Jun-12 21:12N 40°37' W 074°12'3 8.0
2018-Jun-12 20:52N 40°39' W 074°10'411.2
2018-Jun-12 20:30N 40°39' W 074°05'1 2.5
2018-Jun-12 20:00N 40°41' W 074°05'0 0.0
2018-Jun-12 19:30N 40°41' W 074°05'0 0.0
2018-Jun-12 19:00N 40°41' W 074°05'0 0.0
2018-Jun-12 18:30N 40°41' W 074°05'0 0.0
2018-Jun-12 18:00N 40°41' W 074°05'0 0.0
2018-Jun-12 17:30N 40°41' W 074°05'0 0.0
2018-Jun-12 17:00N 40°41' W 074°05'0 0.0
2018-Jun-12 16:30N 40°41' W 074°05'0 0.0
2018-Jun-12 16:00N 40°41' W 074°05'0 0.0
2018-Jun-12 15:30N 40°41' W 074°05'0 0.0
2018-Jun-12 15:00N 40°41' W 074°05'1 1.5
2018-Jun-12 14:31N 40°40' W 074°04'5 8.6
2018-Jun-12 13:58N 40°39' W 074°10'0 0.0
2018-Jun-12 07:19N 40°39' W 074°10'2 5.6
2018-Jun-12 06:59N 40°39' W 074°08'3 5.3
2018-Jun-12 06:26N 40°39' W 074°04'3 7.9
2018-Jun-12 06:00N 40°42' W 074°02'4 8.5
2018-Jun-12 05:30N 40°46' W 074°00'0 0.0
2018-Jun-12 00:23N 40°46' W 074°00'512.0
2018-Jun-12 00:00N 40°42' W 074°02'5 9.7
2018-Jun-11 23:30N 40°39' W 074°07'2 0.3
2018-Jun-11 16:46N 40°39' W 074°10'3 9.1
2018-Jun-11 16:25N 40°39' W 074°06'2 2.9
2018-Jun-11 15:47N 40°41' W 074°05'0 0.0
2018-Jun-11 15:30N 40°41' W 074°05'0 0.0
2018-Jun-11 15:00N 40°41' W 074°05'0 0.0
2018-Jun-11 14:30N 40°41' W 074°05'0 0.0
2018-Jun-11 13:58N 40°41' W 074°05'3 6.8
2018-Jun-11 13:30N 40°43' W 074°02'4 0.4
2018-Jun-11 03:41N 40°47' W 073°60'1 8.1
2018-Jun-11 03:31N 40°45' W 074°01'4 8.6
2018-Jun-11 03:01N 40°41' W 074°02'2 3.9
2018-Jun-11 02:30N 40°41' W 074°05'0 0.0
2018-Jun-11 02:01N 40°41' W 074°05'0 0.3
2018-Jun-11 01:31N 40°40' W 074°04'0 0.0
2018-Jun-11 01:01N 40°40' W 074°04'0 0.3
2018-Jun-11 00:30N 40°41' W 074°05'0 0.0
2018-Jun-11 00:00N 40°41' W 074°05'0 0.0
2018-Jun-10 23:31N 40°41' W 074°05'0 0.0
2018-Jun-10 23:01N 40°41' W 074°05'0 0.0
2018-Jun-10 22:31N 40°41' W 074°05'0 0.0
2018-Jun-10 22:01N 40°41' W 074°05'0 0.0
2018-Jun-10 21:30N 40°41' W 074°05'0 0.0
2018-Jun-10 21:01N 40°41' W 074°05'0 0.0
2018-Jun-10 20:30N 40°41' W 074°05'0 0.0
2018-Jun-10 20:01N 40°41' W 074°05'0 0.0
2018-Jun-10 19:31N 40°41' W 074°05'0 0.0
2018-Jun-10 19:01N 40°41' W 074°05'0 0.0
2018-Jun-10 18:31N 40°41' W 074°05'0 0.0
2018-Jun-10 18:01N 40°41' W 074°05'0 0.0
2018-Jun-10 17:31N 40°41' W 074°05'0 0.0
2018-Jun-10 17:01N 40°41' W 074°05'0 0.0
2018-Jun-10 16:30N 40°41' W 074°05'0 0.0
2018-Jun-10 16:01N 40°41' W 074°05'0 0.0
2018-Jun-10 15:31N 40°41' W 074°05'0 0.0
2018-Jun-10 15:01N 40°41' W 074°05'0 0.0
2018-Jun-10 14:30N 40°41' W 074°05'0 0.0
2018-Jun-10 13:31N 40°41' W 074°05'0 0.0
2018-Jun-10 13:00N 40°41' W 074°05'0 0.0
2018-Jun-10 12:30N 40°41' W 074°05'0 0.0
2018-Jun-10 12:01N 40°41' W 074°05'0 0.0
2018-Jun-10 11:31N 40°41' W 074°05'0 0.0
2018-Jun-10 11:01N 40°41' W 074°05'0 0.0
2018-Jun-10 10:30N 40°41' W 074°05'0 0.0
2018-Jun-10 10:01N 40°41' W 074°05'0 0.0
2018-Jun-10 09:31N 40°41' W 074°05'0 0.0
2018-Jun-10 09:00N 40°41' W 074°05'0 0.0
2018-Jun-10 08:31N 40°41' W 074°05'0 0.0
2018-Jun-10 08:00N 40°41' W 074°05'0 0.0
2018-Jun-10 07:30N 40°41' W 074°05'0 0.0
2018-Jun-10 07:01N 40°41' W 074°05'0 0.0
2018-Jun-10 06:31N 40°41' W 074°05'0 0.0
2018-Jun-10 06:01N 40°41' W 074°05'0 0.0
2018-Jun-10 05:30N 40°41' W 074°05'0 0.0
2018-Jun-10 05:01N 40°41' W 074°05'0 0.0
2018-Jun-10 04:31N 40°41' W 074°05'0 0.0
2018-Jun-10 04:01N 40°41' W 074°05'0 0.0
2018-Jun-10 03:30N 40°41' W 074°05'0 0.0
2018-Jun-10 03:01N 40°41' W 074°05'0 0.0
2018-Jun-10 02:30N 40°41' W 074°05'0 0.0
2018-Jun-10 02:00N 40°41' W 074°05'0 0.0
2018-Jun-10 01:31N 40°41' W 074°05'0 0.0
2018-Jun-10 01:01N 40°41' W 074°05'0 0.0
2018-Jun-10 00:31N 40°41' W 074°05'0 0.0
2018-Jun-10 00:00N 40°41' W 074°05'0 0.0
2018-Jun-09 23:31N 40°41' W 074°05'0 0.0
2018-Jun-09 23:01N 40°41' W 074°05'0 0.0
2018-Jun-09 22:30N 40°41' W 074°05'0 0.0
2018-Jun-09 22:01N 40°41' W 074°05'0 0.0
2018-Jun-09 21:31N 40°41' W 074°05'0 0.0
2018-Jun-09 21:00N 40°41' W 074°05'0 0.0
2018-Jun-09 20:31N 40°41' W 074°05'0 0.0
2018-Jun-09 20:01N 40°41' W 074°05'2 3.0
2018-Jun-09 19:30N 40°39' W 074°05'4 8.1
2018-Jun-09 19:00N 40°39' W 074°10'  
Track history (hours):
 
Tides and Currents Weather Stations Pressure Air Temp Water Temp Dewpoint Dewpoint Depression Visibility Wind Speed Wind Dir Waves Ship Positions

Elizabeth

Owner: WEEKS MARINE, INC., CRANFORD, NJ. More information available from US FCC via Universal Licensing System and Coast Guard Vessel Documentation Center.

Last reported at 2018-Jun-19 18:00 UTC. Time now 2018-Jun-19 18:22 UTC.
Position N 40°41' W 074°05'.

Length 24 m; draft 3.3 m.

Type: . MMSI: 366939170.

Date/timePositionNaut miles runAvg speedWind from/ knotsBaromVisibWave heightAir tempDewpointWater temp
2018-Jun-19 18:00N 40°41' W 074°05'0 0.0
2018-Jun-19 17:30N 40°41' W 074°05'0 0.2
2018-Jun-19 17:00N 40°41' W 074°05'1 2.2
2018-Jun-19 16:30N 40°39' W 074°04'3 6.1
2018-Jun-19 16:00N 40°39' W 074°08'3 0.8
2018-Jun-19 11:55N 40°37' W 074°12'4 8.2
2018-Jun-19 11:29N 40°39' W 074°08'3 6.8
2018-Jun-19 11:00N 40°40' W 074°04'0 0.8
2018-Jun-19 10:30N 40°41' W 074°05'0 0.0
2018-Jun-19 10:00N 40°41' W 074°05'0 0.0
2018-Jun-19 09:30N 40°41' W 074°05'0 0.0
2018-Jun-19 09:00N 40°41' W 074°05'0 0.0
2018-Jun-19 08:30N 40°41' W 074°05'0 0.0
2018-Jun-19 08:00N 40°41' W 074°05'0 0.0
2018-Jun-19 07:30N 40°41' W 074°05'0 0.0
2018-Jun-19 07:00N 40°41' W 074°05'0 0.0
2018-Jun-19 06:30N 40°41' W 074°05'0 0.0
2018-Jun-19 06:00N 40°41' W 074°05'0 0.0
2018-Jun-19 05:30N 40°41' W 074°05'0 0.0
2018-Jun-19 05:00N 40°41' W 074°05'0 0.0
2018-Jun-19 04:30N 40°41' W 074°05'0 0.0
2018-Jun-19 04:00N 40°41' W 074°05'0 0.0
2018-Jun-19 03:30N 40°41' W 074°05'0 0.0
2018-Jun-19 03:00N 40°41' W 074°05'0 0.0
2018-Jun-19 02:30N 40°41' W 074°05'0 0.0
2018-Jun-19 02:00N 40°41' W 074°05'0 0.0
2018-Jun-19 01:30N 40°41' W 074°05'0 0.0
2018-Jun-19 01:00N 40°41' W 074°05'0 0.0
2018-Jun-19 00:30N 40°41' W 074°05'0 0.0
2018-Jun-19 00:00N 40°41' W 074°05'0 0.0
2018-Jun-18 23:30N 40°41' W 074°05'0 0.5
2018-Jun-18 23:00N 40°41' W 074°04'0 0.4
2018-Jun-18 22:30N 40°41' W 074°04'0 0.3
2018-Jun-18 22:00N 40°40' W 074°05'0 0.2
2018-Jun-18 21:30N 40°41' W 074°05'0 0.1
2018-Jun-18 21:00N 40°41' W 074°05'0 0.1
2018-Jun-18 20:30N 40°41' W 074°05'0 0.0
2018-Jun-18 20:00N 40°41' W 074°05'0 0.0
2018-Jun-18 19:30N 40°41' W 074°05'0 0.0
2018-Jun-18 19:00N 40°41' W 074°05'0 0.0
2018-Jun-18 18:30N 40°41' W 074°05'2 3.7
2018-Jun-18 18:00N 40°39' W 074°06'5 0.8
2018-Jun-18 11:48N 40°38' W 074°12'3 8.6
2018-Jun-18 11:30N 40°39' W 074°09'4 7.9
2018-Jun-18 11:00N 40°40' W 074°04'0 0.9
2018-Jun-18 10:30N 40°41' W 074°05'0 0.0
2018-Jun-18 10:00N 40°41' W 074°05'0 0.0
2018-Jun-18 09:30N 40°41' W 074°05'0 0.0
2018-Jun-18 09:00N 40°41' W 074°05'0 0.0
2018-Jun-18 08:30N 40°41' W 074°05'0 0.0
2018-Jun-18 08:00N 40°41' W 074°05'0 0.0
2018-Jun-18 07:30N 40°41' W 074°05'0 0.0
2018-Jun-18 07:00N 40°41' W 074°05'0 0.0
2018-Jun-18 06:30N 40°41' W 074°05'0 0.0
2018-Jun-18 06:00N 40°41' W 074°05'0 0.0
2018-Jun-18 05:30N 40°41' W 074°05'0 0.0
2018-Jun-18 05:00N 40°41' W 074°05'0 0.0
2018-Jun-18 04:30N 40°41' W 074°05'0 0.0
2018-Jun-18 04:00N 40°41' W 074°05'0 0.0
2018-Jun-18 03:30N 40°41' W 074°05'0 0.0
2018-Jun-18 03:00N 40°41' W 074°05'0 0.0
2018-Jun-18 02:30N 40°41' W 074°05'0 0.0
2018-Jun-18 02:00N 40°41' W 074°05'0 0.0
2018-Jun-18 01:30N 40°41' W 074°05'0 0.0
2018-Jun-18 01:00N 40°41' W 074°05'0 0.0
2018-Jun-18 00:30N 40°41' W 074°05'0 0.0
2018-Jun-18 00:00N 40°41' W 074°05'0 0.4
2018-Jun-17 23:30N 40°41' W 074°04'0 0.7
2018-Jun-17 23:00N 40°40' W 074°04'2 3.9
2018-Jun-17 22:30N 40°38' W 074°03'3 5.5
2018-Jun-17 21:59N 40°36' W 074°02'10 3.1
2018-Jun-17 18:40N 40°28' W 073°54'1 4.1
2018-Jun-17 18:20N 40°29' W 073°55'10 9.0
2018-Jun-17 17:16N 40°36' W 074°03'2 8.9
2018-Jun-17 17:00N 40°39' W 074°03'2 0.6
2018-Jun-17 13:12N 40°41' W 074°05'0 0.0
2018-Jun-17 13:00N 40°41' W 074°05'0 0.0
2018-Jun-17 12:30N 40°41' W 074°05'0 0.0
2018-Jun-17 12:00N 40°41' W 074°05'0 0.0
2018-Jun-17 11:30N 40°41' W 074°05'0 0.0
2018-Jun-17 11:00N 40°41' W 074°05'0 0.0
2018-Jun-17 10:30N 40°41' W 074°05'0 0.0
2018-Jun-17 10:00N 40°41' W 074°05'0 0.0
2018-Jun-17 09:30N 40°41' W 074°05'0 0.0
2018-Jun-17 09:00N 40°41' W 074°05'0 0.0
2018-Jun-17 08:30N 40°41' W 074°05'0 0.0
2018-Jun-17 08:00N 40°41' W 074°05'0 0.0
2018-Jun-17 07:30N 40°41' W 074°05'0 0.0
2018-Jun-17 07:00N 40°41' W 074°05'0 0.0
2018-Jun-17 06:30N 40°41' W 074°05'0 0.0
2018-Jun-17 06:00N 40°41' W 074°05'0 0.0
2018-Jun-17 05:30N 40°41' W 074°05'0 0.0
2018-Jun-17 05:00N 40°41' W 074°05'0 0.0
2018-Jun-17 04:30N 40°41' W 074°05'0 0.0
2018-Jun-17 04:00N 40°41' W 074°05'0 0.0
2018-Jun-17 03:30N 40°41' W 074°05'0 0.0
2018-Jun-17 03:00N 40°41' W 074°05'0 0.0
2018-Jun-17 02:30N 40°41' W 074°05'0 0.0
2018-Jun-17 02:00N 40°41' W 074°05'0 0.0
2018-Jun-17 01:30N 40°41' W 074°05'0 0.0
2018-Jun-17 01:00N 40°41' W 074°05'0 0.0
2018-Jun-17 00:30N 40°41' W 074°05'0 0.0
2018-Jun-17 00:00N 40°41' W 074°05'0 0.0
2018-Jun-16 23:30N 40°41' W 074°05'0 0.0
2018-Jun-16 23:00N 40°41' W 074°05'0 0.0
2018-Jun-16 22:30N 40°41' W 074°05'0 0.0
2018-Jun-16 22:00N 40°41' W 074°05'0 0.0
2018-Jun-16 21:30N 40°41' W 074°05'0 0.0
2018-Jun-16 21:00N 40°41' W 074°05'0 0.0
2018-Jun-16 20:30N 40°41' W 074°05'0 0.0
2018-Jun-16 20:00N 40°41' W 074°05'0 0.3
2018-Jun-16 19:30N 40°40' W 074°04'0 0.0
2018-Jun-16 19:01N 40°40' W 074°04'0 0.4
2018-Jun-16 18:30N 40°40' W 074°04'1 1.2
2018-Jun-16 18:00N 40°40' W 074°05'0 0.0
2018-Jun-16 17:29N 40°40' W 074°05'0 0.0
2018-Jun-16 17:00N 40°40' W 074°05'0 0.3
2018-Jun-16 16:30N 40°40' W 074°05'0 0.1
2018-Jun-16 16:01N 40°40' W 074°05'1 1.2
2018-Jun-16 15:30N 40°40' W 074°04'0 0.3
2018-Jun-16 15:00N 40°40' W 074°04'0 0.2
2018-Jun-16 14:30N 40°40' W 074°05'0 0.8
2018-Jun-16 14:00N 40°40' W 074°04'0 0.5
2018-Jun-16 13:30N 40°41' W 074°04'0 0.4
2018-Jun-16 13:00N 40°41' W 074°05'0 0.4
2018-Jun-16 12:30N 40°41' W 074°04'0 0.0
2018-Jun-16 12:01N 40°41' W 074°04'0 0.1
2018-Jun-16 11:30N 40°41' W 074°04'0 0.2
2018-Jun-16 11:01N 40°40' W 074°04'0 0.5
2018-Jun-16 10:30N 40°41' W 074°05'0 0.0
2018-Jun-16 10:00N 40°41' W 074°05'0 0.0
2018-Jun-16 09:30N 40°41' W 074°05'0 0.0
2018-Jun-16 09:00N 40°41' W 074°05'0 0.0
2018-Jun-16 08:30N 40°41' W 074°05'0 0.0
2018-Jun-16 08:00N 40°41' W 074°05'0 0.0
2018-Jun-16 07:30N 40°41' W 074°05'0 0.0
2018-Jun-16 07:00N 40°41' W 074°05'0 0.0
2018-Jun-16 06:30N 40°41' W 074°05'0 0.0
2018-Jun-16 06:00N 40°41' W 074°05'0 0.0
2018-Jun-16 05:30N 40°41' W 074°05'0 0.0
2018-Jun-16 05:00N 40°41' W 074°05'0 0.0
2018-Jun-16 04:30N 40°41' W 074°05'0 0.0
2018-Jun-16 04:00N 40°41' W 074°05'1 1.6
2018-Jun-16 03:30N 40°40' W 074°04'4 8.1
2018-Jun-16 03:00N 40°44' W 074°01'2 0.1
2018-Jun-15 09:36N 40°46' W 074°00'1 6.8
2018-Jun-15 09:30N 40°46' W 074°00'4 7.5
2018-Jun-15 09:00N 40°42' W 074°02'3 5.2
2018-Jun-15 08:30N 40°41' W 074°04'0 0.0
2018-Jun-15 08:00N 40°41' W 074°04'0 0.0
2018-Jun-15 07:30N 40°41' W 074°04'0 0.0
2018-Jun-15 07:00N 40°41' W 074°04'0 0.1
2018-Jun-15 06:31N 40°41' W 074°05'0 0.1
2018-Jun-15 06:00N 40°41' W 074°05'0 0.0
2018-Jun-15 05:30N 40°41' W 074°05'0 0.0
2018-Jun-15 05:00N 40°41' W 074°05'0 0.0
2018-Jun-15 04:30N 40°41' W 074°05'0 0.0
2018-Jun-15 04:00N 40°41' W 074°05'0 0.0
2018-Jun-15 03:30N 40°41' W 074°05'0 0.0
2018-Jun-15 03:00N 40°41' W 074°05'0 0.0
2018-Jun-15 02:30N 40°41' W 074°05'0 0.0
2018-Jun-15 02:00N 40°41' W 074°05'0 0.0
2018-Jun-15 01:30N 40°41' W 074°05'0 0.0
2018-Jun-15 01:00N 40°41' W 074°05'0 0.0
2018-Jun-15 00:30N 40°41' W 074°05'0 0.0
2018-Jun-15 00:00N 40°41' W 074°05'0 0.3
2018-Jun-14 23:30N 40°41' W 074°04'0 0.0
2018-Jun-14 23:01N 40°41' W 074°04'0 0.2
2018-Jun-14 22:31N 40°40' W 074°04'0 0.2
2018-Jun-14 22:00N 40°41' W 074°04'0 0.1
2018-Jun-14 21:31N 40°40' W 074°04'0 0.4
2018-Jun-14 21:01N 40°41' W 074°04'0 0.3
2018-Jun-14 20:30N 40°41' W 074°05'0 0.0
2018-Jun-14 20:00N 40°41' W 074°05'0 0.0
2018-Jun-14 19:30N 40°41' W 074°05'0 0.0
2018-Jun-14 19:01N 40°41' W 074°05'0 0.0
2018-Jun-14 18:30N 40°41' W 074°05'0 0.0
2018-Jun-14 18:00N 40°41' W 074°05'0 0.0
2018-Jun-14 17:30N 40°41' W 074°05'1 1.9
2018-Jun-14 17:00N 40°40' W 074°03'510.5
2018-Jun-14 16:31N 40°45' W 074°01'0 0.1
2018-Jun-14 09:32N 40°46' W 074°00'0 8.0
2018-Jun-14 09:30N 40°45' W 074°01'4 8.3
2018-Jun-14 09:01N 40°41' W 074°02'2 4.4
2018-Jun-14 08:30N 40°41' W 074°05'0 0.0
2018-Jun-14 08:00N 40°41' W 074°05'0 0.0
2018-Jun-14 07:30N 40°41' W 074°05'0 0.0
2018-Jun-14 07:00N 40°41' W 074°05'0 0.0
2018-Jun-14 06:30N 40°41' W 074°05'0 0.0
2018-Jun-14 06:00N 40°41' W 074°05'0 0.0
2018-Jun-14 05:30N 40°41' W 074°05'0 0.5
2018-Jun-14 05:01N 40°40' W 074°04'0 0.2
2018-Jun-14 04:30N 40°40' W 074°04'0 0.1
2018-Jun-14 04:00N 40°40' W 074°04'0 0.2
2018-Jun-14 03:31N 40°40' W 074°04'0 0.6
2018-Jun-14 03:01N 40°41' W 074°05'0 0.3
2018-Jun-14 02:30N 40°40' W 074°04'1 2.6
2018-Jun-14 02:00N 40°39' W 074°05'6 0.6
2018-Jun-13 16:29N 40°37' W 074°12'3 5.1
2018-Jun-13 15:56N 40°39' W 074°09'2 4.9
2018-Jun-13 15:28N 40°39' W 074°06'2 4.8
2018-Jun-13 15:01N 40°40' W 074°04'0 0.7
2018-Jun-13 14:30N 40°41' W 074°04'0 0.3
2018-Jun-13 14:01N 40°41' W 074°04'0 0.1
2018-Jun-13 13:30N 40°41' W 074°04'0 0.9
2018-Jun-13 13:00N 40°40' W 074°04'3 6.1
2018-Jun-13 12:30N 40°39' W 074°07'4 0.8
2018-Jun-13 07:24N 40°37' W 074°12'2 5.2
2018-Jun-13 06:59N 40°39' W 074°10'3 5.4
2018-Jun-13 06:30N 40°39' W 074°07'2 5.0
2018-Jun-13 06:00N 40°40' W 074°04'1 1.4
2018-Jun-13 05:30N 40°41' W 074°04'0 0.0
2018-Jun-13 05:00N 40°41' W 074°04'3 5.3
2018-Jun-13 04:31N 40°42' W 074°01'5 2.0
2018-Jun-13 01:53N 40°46' W 073°57'2 6.0
2018-Jun-13 01:31N 40°44' W 073°58'3 6.2
2018-Jun-13 01:00N 40°41' W 074°01'3 6.7
2018-Jun-13 00:30N 40°39' W 074°04'3 6.4
2018-Jun-13 00:00N 40°39' W 074°09'3 1.2
2018-Jun-12 21:12N 40°37' W 074°12'3 8.0
2018-Jun-12 20:52N 40°39' W 074°10'411.2
2018-Jun-12 20:30N 40°39' W 074°05'1 2.5
2018-Jun-12 20:00N 40°41' W 074°05'0 0.0
2018-Jun-12 19:30N 40°41' W 074°05'0 0.0
2018-Jun-12 19:00N 40°41' W 074°05'0 0.0
2018-Jun-12 18:30N 40°41' W 074°05'0 0.0
2018-Jun-12 18:00N 40°41' W 074°05'0 0.0
2018-Jun-12 17:30N 40°41' W 074°05'0 0.0
2018-Jun-12 17:00N 40°41' W 074°05'0 0.0
2018-Jun-12 16:30N 40°41' W 074°05'0 0.0
2018-Jun-12 16:00N 40°41' W 074°05'0 0.0
2018-Jun-12 15:30N 40°41' W 074°05'0 0.0
2018-Jun-12 15:00N 40°41' W 074°05'1 1.5
2018-Jun-12 14:31N 40°40' W 074°04'5 8.6
2018-Jun-12 13:58N 40°39' W 074°10'0 0.0
2018-Jun-12 07:19N 40°39' W 074°10'2 5.6
2018-Jun-12 06:59N 40°39' W 074°08'3 5.3
2018-Jun-12 06:26N 40°39' W 074°04'3 7.9
2018-Jun-12 06:00N 40°42' W 074°02'4 8.5
2018-Jun-12 05:30N 40°46' W 074°00'0 0.0
2018-Jun-12 00:23N 40°46' W 074°00'512.0
2018-Jun-12 00:00N 40°42' W 074°02'5 9.7
2018-Jun-11 23:30N 40°39' W 074°07'2 0.3
2018-Jun-11 16:46N 40°39' W 074°10'3 9.1
2018-Jun-11 16:25N 40°39' W 074°06'2 2.9
2018-Jun-11 15:47N 40°41' W 074°05'0 0.0
2018-Jun-11 15:30N 40°41' W 074°05'0 0.0
2018-Jun-11 15:00N 40°41' W 074°05'0 0.0
2018-Jun-11 14:30N 40°41' W 074°05'0 0.0
2018-Jun-11 13:58N 40°41' W 074°05'3 6.8
2018-Jun-11 13:30N 40°43' W 074°02'4 0.4
2018-Jun-11 03:41N 40°47' W 073°60'1 8.1
2018-Jun-11 03:31N 40°45' W 074°01'4 8.6
2018-Jun-11 03:01N 40°41' W 074°02'2 3.9
2018-Jun-11 02:30N 40°41' W 074°05'0 0.0
2018-Jun-11 02:01N 40°41' W 074°05'0 0.3
2018-Jun-11 01:31N 40°40' W 074°04'0 0.0
2018-Jun-11 01:01N 40°40' W 074°04'0 0.3
2018-Jun-11 00:30N 40°41' W 074°05'0 0.0
2018-Jun-11 00:00N 40°41' W 074°05'0 0.0
2018-Jun-10 23:31N 40°41' W 074°05'0 0.0
2018-Jun-10 23:01N 40°41' W 074°05'0 0.0
2018-Jun-10 22:31N 40°41' W 074°05'0 0.0
2018-Jun-10 22:01N 40°41' W 074°05'0 0.0
2018-Jun-10 21:30N 40°41' W 074°05'0 0.0
2018-Jun-10 21:01N 40°41' W 074°05'0 0.0
2018-Jun-10 20:30N 40°41' W 074°05'0 0.0
2018-Jun-10 20:01N 40°41' W 074°05'0 0.0
2018-Jun-10 19:31N 40°41' W 074°05'0 0.0
2018-Jun-10 19:01N 40°41' W 074°05'0 0.0
2018-Jun-10 18:31N 40°41' W 074°05'0 0.0
2018-Jun-10 18:01N 40°41' W 074°05'0 0.0
2018-Jun-10 17:31N 40°41' W 074°05'0 0.0
2018-Jun-10 17:01N 40°41' W 074°05'0 0.0
2018-Jun-10 16:30N 40°41' W 074°05'0 0.0
2018-Jun-10 16:01N 40°41' W 074°05'0 0.0
2018-Jun-10 15:31N 40°41' W 074°05'0 0.0
2018-Jun-10 15:01N 40°41' W 074°05'0 0.0
2018-Jun-10 14:30N 40°41' W 074°05'0 0.0
2018-Jun-10 13:31N 40°41' W 074°05'0 0.0
2018-Jun-10 13:00N 40°41' W 074°05'0 0.0
2018-Jun-10 12:30N 40°41' W 074°05'0 0.0
2018-Jun-10 12:01N 40°41' W 074°05'0 0.0
2018-Jun-10 11:31N 40°41' W 074°05'0 0.0
2018-Jun-10 11:01N 40°41' W 074°05'0 0.0
2018-Jun-10 10:30N 40°41' W 074°05'0 0.0
2018-Jun-10 10:01N 40°41' W 074°05'0 0.0
2018-Jun-10 09:31N 40°41' W 074°05'0 0.0
2018-Jun-10 09:00N 40°41' W 074°05'0 0.0
2018-Jun-10 08:31N 40°41' W 074°05'0 0.0
2018-Jun-10 08:00N 40°41' W 074°05'0 0.0
2018-Jun-10 07:30N 40°41' W 074°05'0 0.0
2018-Jun-10 07:01N 40°41' W 074°05'0 0.0
2018-Jun-10 06:31N 40°41' W 074°05'0 0.0
2018-Jun-10 06:01N 40°41' W 074°05'0 0.0
2018-Jun-10 05:30N 40°41' W 074°05'0 0.0
2018-Jun-10 05:01N 40°41' W 074°05'0 0.0
2018-Jun-10 04:31N 40°41' W 074°05'0 0.0
2018-Jun-10 04:01N 40°41' W 074°05'0 0.0
2018-Jun-10 03:30N 40°41' W 074°05'0 0.0
2018-Jun-10 03:01N 40°41' W 074°05'0 0.0
2018-Jun-10 02:30N 40°41' W 074°05'0 0.0
2018-Jun-10 02:00N 40°41' W 074°05'0 0.0
2018-Jun-10 01:31N 40°41' W 074°05'0 0.0
2018-Jun-10 01:01N 40°41' W 074°05'0 0.0
2018-Jun-10 00:31N 40°41' W 074°05'0 0.0
2018-Jun-10 00:00N 40°41' W 074°05'0 0.0
2018-Jun-09 23:31N 40°41' W 074°05'0 0.0
2018-Jun-09 23:01N 40°41' W 074°05'0 0.0
2018-Jun-09 22:30N 40°41' W 074°05'0 0.0
2018-Jun-09 22:01N 40°41' W 074°05'0 0.0
2018-Jun-09 21:31N 40°41' W 074°05'0 0.0
2018-Jun-09 21:00N 40°41' W 074°05'0 0.0
2018-Jun-09 20:31N 40°41' W 074°05'0 0.0
2018-Jun-09 20:01N 40°41' W 074°05'2 3.0
2018-Jun-09 19:30N 40°39' W 074°05'4 8.1
2018-Jun-09 19:00N 40°39' W 074°10'  

Dump ship's entire track history